sensor_id;sensor_type;location;lat;lon;timestamp;temperature;humidity
2539;DHT22;1280;49.760;9.664;2022-12-07T00:01:19;5.80;80.00
2539;DHT22;1280;49.760;9.664;2022-12-07T00:03:50;5.70;80.10
2539;DHT22;1280;49.760;9.664;2022-12-07T00:06:19;5.70;80.10
2539;DHT22;1280;49.760;9.664;2022-12-07T00:08:48;5.70;80.10
2539;DHT22;1280;49.760;9.664;2022-12-07T00:11:18;5.70;80.10
2539;DHT22;1280;49.760;9.664;2022-12-07T00:13:47;5.70;80.10
2539;DHT22;1280;49.760;9.664;2022-12-07T00:16:20;5.70;80.20
2539;DHT22;1280;49.760;9.664;2022-12-07T00:18:49;5.70;80.10
2539;DHT22;1280;49.760;9.664;2022-12-07T00:21:19;5.70;80.20
2539;DHT22;1280;49.760;9.664;2022-12-07T00:23:49;5.70;80.20
2539;DHT22;1280;49.760;9.664;2022-12-07T00:26:18;5.70;80.10
2539;DHT22;1280;49.760;9.664;2022-12-07T00:28:47;5.70;80.20
2539;DHT22;1280;49.760;9.664;2022-12-07T00:31:17;5.70;80.20
2539;DHT22;1280;49.760;9.664;2022-12-07T00:33:46;5.70;80.30
2539;DHT22;1280;49.760;9.664;2022-12-07T00:36:17;5.80;80.30
2539;DHT22;1280;49.760;9.664;2022-12-07T00:38:52;5.80;80.20
2539;DHT22;1280;49.760;9.664;2022-12-07T00:41:22;5.80;80.30
2539;DHT22;1280;49.760;9.664;2022-12-07T00:43:51;5.80;80.30
2539;DHT22;1280;49.760;9.664;2022-12-07T00:46:20;5.80;80.40
2539;DHT22;1280;49.760;9.664;2022-12-07T00:48:50;5.80;80.40
2539;DHT22;1280;49.760;9.664;2022-12-07T00:51:20;5.80;80.30
2539;DHT22;1280;49.760;9.664;2022-12-07T00:53:49;5.80;80.40
2539;DHT22;1280;49.760;9.664;2022-12-07T00:56:19;5.80;80.40
2539;DHT22;1280;49.760;9.664;2022-12-07T00:58:52;5.90;80.50
2539;DHT22;1280;49.760;9.664;2022-12-07T01:01:20;5.90;80.40
2539;DHT22;1280;49.760;9.664;2022-12-07T01:03:48;5.90;80.40
2539;DHT22;1280;49.760;9.664;2022-12-07T01:06:18;5.90;80.40
2539;DHT22;1280;49.760;9.664;2022-12-07T01:08:47;5.90;80.40
2539;DHT22;1280;49.760;9.664;2022-12-07T01:11:17;5.90;80.30
2539;DHT22;1280;49.760;9.664;2022-12-07T01:13:45;5.90;80.30
2539;DHT22;1280;49.760;9.664;2022-12-07T01:16:15;5.90;80.30
2539;DHT22;1280;49.760;9.664;2022-12-07T01:18:47;5.80;80.30
2539;DHT22;1280;49.760;9.664;2022-12-07T01:21:17;5.80;80.30
2539;DHT22;1280;49.760;9.664;2022-12-07T01:23:48;5.80;80.40
2539;DHT22;1280;49.760;9.664;2022-12-07T01:26:19;5.80;80.40
2539;DHT22;1280;49.760;9.664;2022-12-07T01:28:47;5.80;80.40
2539;DHT22;1280;49.760;9.664;2022-12-07T01:31:17;5.80;80.40
2539;DHT22;1280;49.760;9.664;2022-12-07T01:33:47;5.80;80.40
2539;DHT22;1280;49.760;9.664;2022-12-07T01:36:18;5.80;80.40
2539;DHT22;1280;49.760;9.664;2022-12-07T01:38:50;5.80;80.40
2539;DHT22;1280;49.760;9.664;2022-12-07T01:41:20;5.80;80.40
2539;DHT22;1280;49.760;9.664;2022-12-07T01:44:08;5.80;80.40
2539;DHT22;1280;49.760;9.664;2022-12-07T01:46:37;5.80;80.40
2539;DHT22;1280;49.760;9.664;2022-12-07T01:49:07;5.80;80.40
2539;DHT22;1280;49.760;9.664;2022-12-07T01:51:37;5.80;80.40
2539;DHT22;1280;49.760;9.664;2022-12-07T01:54:08;5.80;80.40
2539;DHT22;1280;49.760;9.664;2022-12-07T01:56:39;5.80;80.40
2539;DHT22;1280;49.760;9.664;2022-12-07T01:59:08;5.80;80.40
2539;DHT22;1280;49.760;9.664;2022-12-07T02:01:36;5.80;80.40
2539;DHT22;1280;49.760;9.664;2022-12-07T02:04:04;5.80;80.40
2539;DHT22;1280;49.760;9.664;2022-12-07T02:06:35;5.80;80.50
2539;DHT22;1280;49.760;9.664;2022-12-07T02:09:03;5.80;80.50
2539;DHT22;1280;49.760;9.664;2022-12-07T02:11:33;5.80;80.50
2539;DHT22;1280;49.760;9.664;2022-12-07T02:14:01;5.80;80.50
2539;DHT22;1280;49.760;9.664;2022-12-07T02:16:36;5.80;80.50
2539;DHT22;1280;49.760;9.664;2022-12-07T02:19:35;5.90;80.50
2539;DHT22;1280;49.760;9.664;2022-12-07T02:22:18;5.90;80.50
2539;DHT22;1280;49.760;9.664;2022-12-07T02:24:54;5.90;80.40
2539;DHT22;1280;49.760;9.664;2022-12-07T02:27:45;5.80;80.30
2539;DHT22;1280;49.760;9.664;2022-12-07T02:30:17;5.80;80.30
2539;DHT22;1280;49.760;9.664;2022-12-07T02:32:53;5.80;80.30
2539;DHT22;1280;49.760;9.664;2022-12-07T02:35:28;5.80;80.40
2539;DHT22;1280;49.760;9.664;2022-12-07T02:38:03;5.80;80.50
2539;DHT22;1280;49.760;9.664;2022-12-07T02:40:37;5.80;80.50
2539;DHT22;1280;49.760;9.664;2022-12-07T02:43:09;5.80;80.50
2539;DHT22;1280;49.760;9.664;2022-12-07T02:45:41;5.80;80.50
2539;DHT22;1280;49.760;9.664;2022-12-07T02:48:12;5.80;80.50
2539;DHT22;1280;49.760;9.664;2022-12-07T02:50:44;5.80;80.40
2539;DHT22;1280;49.760;9.664;2022-12-07T02:53:28;5.80;80.30
2539;DHT22;1280;49.760;9.664;2022-12-07T02:55:56;5.80;80.40
2539;DHT22;1280;49.760;9.664;2022-12-07T02:58:32;5.80;80.40
2539;DHT22;1280;49.760;9.664;2022-12-07T03:01:11;5.80;80.50
2539;DHT22;1280;49.760;9.664;2022-12-07T03:03:48;5.80;80.40
2539;DHT22;1280;49.760;9.664;2022-12-07T03:06:22;5.80;80.40
2539;DHT22;1280;49.760;9.664;2022-12-07T03:08:59;5.80;80.50
2539;DHT22;1280;49.760;9.664;2022-12-07T03:11:40;5.80;80.50
2539;DHT22;1280;49.760;9.664;2022-12-07T03:14:15;5.80;80.40
2539;DHT22;1280;49.760;9.664;2022-12-07T03:16:51;5.80;80.40
2539;DHT22;1280;49.760;9.664;2022-12-07T03:19:21;5.80;80.40
2539;DHT22;1280;49.760;9.664;2022-12-07T03:21:55;5.80;80.40
2539;DHT22;1280;49.760;9.664;2022-12-07T03:24:27;5.80;80.40
2539;DHT22;1280;49.760;9.664;2022-12-07T03:27:01;5.80;80.40
2539;DHT22;1280;49.760;9.664;2022-12-07T03:29:38;5.80;80.40
2539;DHT22;1280;49.760;9.664;2022-12-07T03:32:12;5.80;80.40
2539;DHT22;1280;49.760;9.664;2022-12-07T03:34:47;5.80;80.30
2539;DHT22;1280;49.760;9.664;2022-12-07T03:37:20;5.70;80.40
2539;DHT22;1280;49.760;9.664;2022-12-07T03:39:58;5.70;80.40
2539;DHT22;1280;49.760;9.664;2022-12-07T03:42:29;5.80;80.50
2539;DHT22;1280;49.760;9.664;2022-12-07T03:44:57;5.80;80.40
2539;DHT22;1280;49.760;9.664;2022-12-07T03:47:30;5.80;80.40
2539;DHT22;1280;49.760;9.664;2022-12-07T03:50:02;5.70;80.30
2539;DHT22;1280;49.760;9.664;2022-12-07T03:52:37;5.70;80.30
2539;DHT22;1280;49.760;9.664;2022-12-07T03:55:10;5.70;80.40
2539;DHT22;1280;49.760;9.664;2022-12-07T03:57:41;5.70;80.30
2539;DHT22;1280;49.760;9.664;2022-12-07T04:00:11;5.70;80.40
2539;DHT22;1280;49.760;9.664;2022-12-07T04:02:41;5.70;80.30
2539;DHT22;1280;49.760;9.664;2022-12-07T04:05:10;5.70;80.40
2539;DHT22;1280;49.760;9.664;2022-12-07T04:07:39;5.70;80.30
2539;DHT22;1280;49.760;9.664;2022-12-07T04:10:08;5.70;80.40
2539;DHT22;1280;49.760;9.664;2022-12-07T04:12:36;5.70;80.30
2539;DHT22;1280;49.760;9.664;2022-12-07T04:15:19;5.70;80.40
2539;DHT22;1280;49.760;9.664;2022-12-07T04:17:48;5.70;80.50
2539;DHT22;1280;49.760;9.664;2022-12-07T04:20:16;5.70;80.50
2539;DHT22;1280;49.760;9.664;2022-12-07T04:22:44;5.70;80.50
2539;DHT22;1280;49.760;9.664;2022-12-07T04:25:12;5.70;80.40
2539;DHT22;1280;49.760;9.664;2022-12-07T04:27:40;5.70;80.40
2539;DHT22;1280;49.760;9.664;2022-12-07T04:30:09;5.70;80.30
2539;DHT22;1280;49.760;9.664;2022-12-07T04:32:37;5.70;80.40
2539;DHT22;1280;49.760;9.664;2022-12-07T04:35:07;5.70;80.50
2539;DHT22;1280;49.760;9.664;2022-12-07T04:37:35;5.70;80.40
2539;DHT22;1280;49.760;9.664;2022-12-07T04:40:07;5.70;80.30
2539;DHT22;1280;49.760;9.664;2022-12-07T04:42:37;5.70;80.20
2539;DHT22;1280;49.760;9.664;2022-12-07T04:45:06;5.70;80.20
2539;DHT22;1280;49.760;9.664;2022-12-07T04:47:34;5.60;80.20
2539;DHT22;1280;49.760;9.664;2022-12-07T04:50:03;5.60;80.30
2539;DHT22;1280;49.760;9.664;2022-12-07T04:52:33;5.60;80.30
2539;DHT22;1280;49.760;9.664;2022-12-07T04:55:01;5.60;80.30
2539;DHT22;1280;49.760;9.664;2022-12-07T04:57:29;5.50;80.30
2539;DHT22;1280;49.760;9.664;2022-12-07T04:59:57;5.50;80.30
2539;DHT22;1280;49.760;9.664;2022-12-07T05:02:26;5.50;80.40
2539;DHT22;1280;49.760;9.664;2022-12-07T05:04:54;5.50;80.40
2539;DHT22;1280;49.760;9.664;2022-12-07T05:07:22;5.50;80.50
2539;DHT22;1280;49.760;9.664;2022-12-07T05:09:51;5.60;80.50
2539;DHT22;1280;49.760;9.664;2022-12-07T05:12:19;5.50;80.40
2539;DHT22;1280;49.760;9.664;2022-12-07T05:14:47;5.50;80.40
2539;DHT22;1280;49.760;9.664;2022-12-07T05:17:15;5.50;80.40
2539;DHT22;1280;49.760;9.664;2022-12-07T05:19:43;5.50;80.50
2539;DHT22;1280;49.760;9.664;2022-12-07T05:22:11;5.50;80.60
2539;DHT22;1280;49.760;9.664;2022-12-07T05:24:40;5.60;80.50
2539;DHT22;1280;49.760;9.664;2022-12-07T05:27:09;5.50;80.50
2539;DHT22;1280;49.760;9.664;2022-12-07T05:29:37;5.50;80.60
2539;DHT22;1280;49.760;9.664;2022-12-07T05:32:05;5.50;80.50
2539;DHT22;1280;49.760;9.664;2022-12-07T05:34:33;5.50;80.50
2539;DHT22;1280;49.760;9.664;2022-12-07T05:37:01;5.50;80.50
2539;DHT22;1280;49.760;9.664;2022-12-07T05:39:29;5.50;80.50
2539;DHT22;1280;49.760;9.664;2022-12-07T05:41:57;5.50;80.60
2539;DHT22;1280;49.760;9.664;2022-12-07T05:44:42;5.50;80.60
2539;DHT22;1280;49.760;9.664;2022-12-07T05:47:11;5.50;80.80
2539;DHT22;1280;49.760;9.664;2022-12-07T05:49:39;5.50;80.70
2539;DHT22;1280;49.760;9.664;2022-12-07T05:52:07;5.50;80.70
2539;DHT22;1280;49.760;9.664;2022-12-07T05:54:36;5.50;80.80
2539;DHT22;1280;49.760;9.664;2022-12-07T05:57:04;5.50;80.80
2539;DHT22;1280;49.760;9.664;2022-12-07T05:59:32;5.50;80.90
2539;DHT22;1280;49.760;9.664;2022-12-07T06:02:02;5.50;80.90
2539;DHT22;1280;49.760;9.664;2022-12-07T06:04:33;5.50;80.80
2539;DHT22;1280;49.760;9.664;2022-12-07T06:07:02;5.50;80.90
2539;DHT22;1280;49.760;9.664;2022-12-07T06:09:31;5.50;80.90
2539;DHT22;1280;49.760;9.664;2022-12-07T06:11:59;5.60;81.00
2539;DHT22;1280;49.760;9.664;2022-12-07T06:14:45;5.60;81.00
2539;DHT22;1280;49.760;9.664;2022-12-07T06:17:15;5.60;81.00
2539;DHT22;1280;49.760;9.664;2022-12-07T06:19:43;5.50;80.90
2539;DHT22;1280;49.760;9.664;2022-12-07T06:22:12;5.50;80.80
2539;DHT22;1280;49.760;9.664;2022-12-07T06:24:40;5.50;80.90
2539;DHT22;1280;49.760;9.664;2022-12-07T06:27:08;5.50;81.00
2539;DHT22;1280;49.760;9.664;2022-12-07T06:29:36;5.50;81.00
2539;DHT22;1280;49.760;9.664;2022-12-07T06:32:04;5.50;81.00
2539;DHT22;1280;49.760;9.664;2022-12-07T06:34:34;5.50;81.10
2539;DHT22;1280;49.760;9.664;2022-12-07T06:37:02;5.50;81.20
2539;DHT22;1280;49.760;9.664;2022-12-07T06:39:31;5.40;81.20
2539;DHT22;1280;49.760;9.664;2022-12-07T06:41:59;5.40;81.20
2539;DHT22;1280;49.760;9.664;2022-12-07T06:44:27;5.40;81.20
2539;DHT22;1280;49.760;9.664;2022-12-07T06:46:55;5.40;81.40
2539;DHT22;1280;49.760;9.664;2022-12-07T06:49:44;5.40;81.40
2539;DHT22;1280;49.760;9.664;2022-12-07T06:52:12;5.40;81.40
2539;DHT22;1280;49.760;9.664;2022-12-07T06:54:40;5.40;81.50
2539;DHT22;1280;49.760;9.664;2022-12-07T06:57:08;5.40;81.40
2539;DHT22;1280;49.760;9.664;2022-12-07T06:59:36;5.40;81.50
2539;DHT22;1280;49.760;9.664;2022-12-07T07:02:04;5.50;81.40
2539;DHT22;1280;49.760;9.664;2022-12-07T07:04:32;5.50;81.40
2539;DHT22;1280;49.760;9.664;2022-12-07T07:07:02;5.50;81.50
2539;DHT22;1280;49.760;9.664;2022-12-07T07:09:30;5.50;81.40
2539;DHT22;1280;49.760;9.664;2022-12-07T07:11:57;5.50;81.30
2539;DHT22;1280;49.760;9.664;2022-12-07T07:14:25;5.50;81.40
2539;DHT22;1280;49.760;9.664;2022-12-07T07:16:53;5.50;81.50
2539;DHT22;1280;49.760;9.664;2022-12-07T07:19:21;5.50;81.60
2539;DHT22;1280;49.760;9.664;2022-12-07T07:21:49;5.50;81.60
2539;DHT22;1280;49.760;9.664;2022-12-07T07:24:19;5.60;81.60
2539;DHT22;1280;49.760;9.664;2022-12-07T07:26:47;5.60;81.60
2539;DHT22;1280;49.760;9.664;2022-12-07T07:29:15;5.60;81.50
2539;DHT22;1280;49.760;9.664;2022-12-07T07:31:43;5.60;81.60
2539;DHT22;1280;49.760;9.664;2022-12-07T07:34:11;5.60;81.50
2539;DHT22;1280;49.760;9.664;2022-12-07T07:36:39;5.60;81.80
2539;DHT22;1280;49.760;9.664;2022-12-07T07:39:07;5.60;81.80
2539;DHT22;1280;49.760;9.664;2022-12-07T07:41:36;5.70;81.80
2539;DHT22;1280;49.760;9.664;2022-12-07T07:44:07;5.70;81.80
2539;DHT22;1280;49.760;9.664;2022-12-07T07:46:35;5.70;81.70
2539;DHT22;1280;49.760;9.664;2022-12-07T07:49:03;5.70;81.70
2539;DHT22;1280;49.760;9.664;2022-12-07T07:51:31;5.70;81.70
2539;DHT22;1280;49.760;9.664;2022-12-07T07:53:58;5.80;81.70
2539;DHT22;1280;49.760;9.664;2022-12-07T07:56:26;5.80;81.60
2539;DHT22;1280;49.760;9.664;2022-12-07T07:58:56;5.80;81.60
2539;DHT22;1280;49.760;9.664;2022-12-07T08:01:24;5.80;81.60
2539;DHT22;1280;49.760;9.664;2022-12-07T08:03:52;5.80;81.60
2539;DHT22;1280;49.760;9.664;2022-12-07T08:06:20;5.70;81.60
2539;DHT22;1280;49.760;9.664;2022-12-07T08:08:49;5.80;81.70
2539;DHT22;1280;49.760;9.664;2022-12-07T08:11:23;5.80;81.80
2539;DHT22;1280;49.760;9.664;2022-12-07T08:13:51;5.80;81.80
2539;DHT22;1280;49.760;9.664;2022-12-07T08:16:20;5.80;81.80
2539;DHT22;1280;49.760;9.664;2022-12-07T08:18:48;5.80;81.80
2539;DHT22;1280;49.760;9.664;2022-12-07T08:21:16;5.90;81.80
2539;DHT22;1280;49.760;9.664;2022-12-07T08:23:44;5.90;81.80
2539;DHT22;1280;49.760;9.664;2022-12-07T08:26:14;5.90;81.80
2539;DHT22;1280;49.760;9.664;2022-12-07T08:28:43;5.90;81.70
2539;DHT22;1280;49.760;9.664;2022-12-07T08:31:13;5.90;81.70
2539;DHT22;1280;49.760;9.664;2022-12-07T08:33:45;5.90;81.80
2539;DHT22;1280;49.760;9.664;2022-12-07T08:36:13;5.90;81.80
2539;DHT22;1280;49.760;9.664;2022-12-07T08:38:42;5.90;81.70
2539;DHT22;1280;49.760;9.664;2022-12-07T08:41:31;5.90;81.80
2539;DHT22;1280;49.760;9.664;2022-12-07T08:43:59;5.90;81.90
2539;DHT22;1280;49.760;9.664;2022-12-07T08:46:31;5.90;81.90
2539;DHT22;1280;49.760;9.664;2022-12-07T08:49:06;5.90;81.90
2539;DHT22;1280;49.760;9.664;2022-12-07T08:51:36;6.00;81.90
2539;DHT22;1280;49.760;9.664;2022-12-07T08:54:07;6.00;81.90
2539;DHT22;1280;49.760;9.664;2022-12-07T08:56:36;6.00;81.90
2539;DHT22;1280;49.760;9.664;2022-12-07T08:59:05;6.00;81.80
2539;DHT22;1280;49.760;9.664;2022-12-07T09:01:33;6.00;81.80
2539;DHT22;1280;49.760;9.664;2022-12-07T09:04:02;6.00;81.90
2539;DHT22;1280;49.760;9.664;2022-12-07T09:06:31;6.00;81.90
2539;DHT22;1280;49.760;9.664;2022-12-07T09:09:00;6.00;82.00
2539;DHT22;1280;49.760;9.664;2022-12-07T09:11:29;6.00;81.90
2539;DHT22;1280;49.760;9.664;2022-12-07T09:13:57;6.00;82.00
2539;DHT22;1280;49.760;9.664;2022-12-07T09:16:25;6.10;82.00
2539;DHT22;1280;49.760;9.664;2022-12-07T09:18:53;6.00;81.90
2539;DHT22;1280;49.760;9.664;2022-12-07T09:21:21;6.10;82.00
2539;DHT22;1280;49.760;9.664;2022-12-07T09:23:56;6.10;81.90
2539;DHT22;1280;49.760;9.664;2022-12-07T09:26:24;6.10;81.90
2539;DHT22;1280;49.760;9.664;2022-12-07T09:28:52;6.10;81.90
2539;DHT22;1280;49.760;9.664;2022-12-07T09:31:20;6.00;82.00
2539;DHT22;1280;49.760;9.664;2022-12-07T09:33:54;6.10;82.00
2539;DHT22;1280;49.760;9.664;2022-12-07T09:36:22;6.10;82.00
2539;DHT22;1280;49.760;9.664;2022-12-07T09:38:52;6.10;82.00
2539;DHT22;1280;49.760;9.664;2022-12-07T09:41:21;6.10;82.00
2539;DHT22;1280;49.760;9.664;2022-12-07T09:43:50;6.10;81.80
2539;DHT22;1280;49.760;9.664;2022-12-07T09:46:20;6.10;81.80
2539;DHT22;1280;49.760;9.664;2022-12-07T09:48:49;6.10;82.00
2539;DHT22;1280;49.760;9.664;2022-12-07T09:51:20;6.10;82.00
2539;DHT22;1280;49.760;9.664;2022-12-07T09:53:54;6.10;82.10
2539;DHT22;1280;49.760;9.664;2022-12-07T09:56:24;6.10;82.10
2539;DHT22;1280;49.760;9.664;2022-12-07T09:58:58;6.10;82.10
2539;DHT22;1280;49.760;9.664;2022-12-07T10:01:31;6.10;82.10
2539;DHT22;1280;49.760;9.664;2022-12-07T10:04:08;6.10;82.20
2539;DHT22;1280;49.760;9.664;2022-12-07T10:06:37;6.20;82.10
2539;DHT22;1280;49.760;9.664;2022-12-07T10:09:10;6.20;82.30
2539;DHT22;1280;49.760;9.664;2022-12-07T10:12:01;6.20;82.30
2539;DHT22;1280;49.760;9.664;2022-12-07T10:14:32;6.30;82.40
2539;DHT22;1280;49.760;9.664;2022-12-07T10:17:33;6.30;82.40
2539;DHT22;1280;49.760;9.664;2022-12-07T10:20:19;6.30;82.40
2539;DHT22;1280;49.760;9.664;2022-12-07T10:22:58;6.30;82.30
2539;DHT22;1280;49.760;9.664;2022-12-07T10:25:29;6.40;82.30
2539;DHT22;1280;49.760;9.664;2022-12-07T10:28:10;6.30;82.10
2539;DHT22;1280;49.760;9.664;2022-12-07T10:30:47;6.30;82.30
2539;DHT22;1280;49.760;9.664;2022-12-07T10:33:29;6.30;82.30
2539;DHT22;1280;49.760;9.664;2022-12-07T10:35:58;6.30;82.30
2539;DHT22;1280;49.760;9.664;2022-12-07T10:38:27;6.30;82.30
2539;DHT22;1280;49.760;9.664;2022-12-07T10:41:06;6.30;82.30
2539;DHT22;1280;49.760;9.664;2022-12-07T10:43:34;6.40;82.30
2539;DHT22;1280;49.760;9.664;2022-12-07T10:46:38;6.40;82.30
2539;DHT22;1280;49.760;9.664;2022-12-07T10:49:27;6.40;82.30
2539;DHT22;1280;49.760;9.664;2022-12-07T10:52:02;6.40;82.20
2539;DHT22;1280;49.760;9.664;2022-12-07T10:54:39;6.40;82.30
2539;DHT22;1280;49.760;9.664;2022-12-07T10:57:32;6.40;82.30
2539;DHT22;1280;49.760;9.664;2022-12-07T11:00:12;6.50;82.30
2539;DHT22;1280;49.760;9.664;2022-12-07T11:03:00;6.50;82.30
2539;DHT22;1280;49.760;9.664;2022-12-07T11:05:39;6.50;82.20
2539;DHT22;1280;49.760;9.664;2022-12-07T11:08:17;6.50;82.30
2539;DHT22;1280;49.760;9.664;2022-12-07T11:10:53;6.50;82.30
2539;DHT22;1280;49.760;9.664;2022-12-07T11:13:29;6.50;82.30
2539;DHT22;1280;49.760;9.664;2022-12-07T11:16:12;6.50;82.30
2539;DHT22;1280;49.760;9.664;2022-12-07T11:18:52;6.50;82.30
2539;DHT22;1280;49.760;9.664;2022-12-07T11:21:29;6.60;82.30
2539;DHT22;1280;49.760;9.664;2022-12-07T11:24:02;6.60;82.30
2539;DHT22;1280;49.760;9.664;2022-12-07T11:26:49;6.60;82.30
2539;DHT22;1280;49.760;9.664;2022-12-07T11:29:50;6.60;82.30
2539;DHT22;1280;49.760;9.664;2022-12-07T11:32:25;6.70;82.30
2539;DHT22;1280;49.760;9.664;2022-12-07T11:35:04;6.70;82.10
2539;DHT22;1280;49.760;9.664;2022-12-07T11:37:34;6.70;82.30
2539;DHT22;1280;49.760;9.664;2022-12-07T11:40:14;6.70;82.20
2539;DHT22;1280;49.760;9.664;2022-12-07T11:42:49;6.70;82.10
2539;DHT22;1280;49.760;9.664;2022-12-07T11:45:23;6.70;82.10
2539;DHT22;1280;49.760;9.664;2022-12-07T11:47:55;6.70;82.20
2539;DHT22;1280;49.760;9.664;2022-12-07T11:50:31;6.70;82.30
2539;DHT22;1280;49.760;9.664;2022-12-07T11:53:02;6.80;82.20
2539;DHT22;1280;49.760;9.664;2022-12-07T11:55:40;6.80;82.20
2539;DHT22;1280;49.760;9.664;2022-12-07T11:58:19;6.80;82.10
2539;DHT22;1280;49.760;9.664;2022-12-07T12:00:52;6.80;82.00
2539;DHT22;1280;49.760;9.664;2022-12-07T12:03:28;6.80;82.10
2539;DHT22;1280;49.760;9.664;2022-12-07T12:05:58;6.80;82.10
2539;DHT22;1280;49.760;9.664;2022-12-07T12:08:29;6.80;82.00
2539;DHT22;1280;49.760;9.664;2022-12-07T12:11:31;6.80;82.10
2539;DHT22;1280;49.760;9.664;2022-12-07T12:14:16;6.80;81.90
2539;DHT22;1280;49.760;9.664;2022-12-07T12:17:19;6.80;81.90
2539;DHT22;1280;49.760;9.664;2022-12-07T12:20:03;6.80;81.90
2539;DHT22;1280;49.760;9.664;2022-12-07T12:22:37;6.80;81.70
2539;DHT22;1280;49.760;9.664;2022-12-07T12:25:12;6.80;81.70
2539;DHT22;1280;49.760;9.664;2022-12-07T12:27:45;6.80;81.80
2539;DHT22;1280;49.760;9.664;2022-12-07T12:30:35;6.80;81.70
2539;DHT22;1280;49.760;9.664;2022-12-07T12:33:25;6.80;81.70
2539;DHT22;1280;49.760;9.664;2022-12-07T12:36:20;6.80;81.70
2539;DHT22;1280;49.760;9.664;2022-12-07T12:38:50;6.80;81.60
2539;DHT22;1280;49.760;9.664;2022-12-07T12:44:40;6.80;81.60
2539;DHT22;1280;49.760;9.664;2022-12-07T12:47:43;6.70;81.60
2539;DHT22;1280;49.760;9.664;2022-12-07T12:50:26;6.70;81.60
2539;DHT22;1280;49.760;9.664;2022-12-07T12:52:59;6.70;81.60
2539;DHT22;1280;49.760;9.664;2022-12-07T12:58:42;6.70;81.50
2539;DHT22;1280;49.760;9.664;2022-12-07T13:01:39;6.70;81.50
2539;DHT22;1280;49.760;9.664;2022-12-07T13:04:34;6.70;81.50
2539;DHT22;1280;49.760;9.664;2022-12-07T13:07:11;6.70;81.60
2539;DHT22;1280;49.760;9.664;2022-12-07T13:09:43;6.70;81.60
2539;DHT22;1280;49.760;9.664;2022-12-07T13:12:14;6.70;81.60
2539;DHT22;1280;49.760;9.664;2022-12-07T13:14:57;6.80;81.50
2539;DHT22;1280;49.760;9.664;2022-12-07T13:20:45;6.80;81.30
2539;DHT22;1280;49.760;9.664;2022-12-07T13:23:21;6.80;81.30
2539;DHT22;1280;49.760;9.664;2022-12-07T13:25:59;6.70;81.30
2539;DHT22;1280;49.760;9.664;2022-12-07T13:28:35;6.80;81.30
2539;DHT22;1280;49.760;9.664;2022-12-07T13:31:20;6.80;81.30
2539;DHT22;1280;49.760;9.664;2022-12-07T13:33:51;6.70;81.30
2539;DHT22;1280;49.760;9.664;2022-12-07T13:36:22;6.70;81.30
2539;DHT22;1280;49.760;9.664;2022-12-07T13:38:54;6.70;81.30
2539;DHT22;1280;49.760;9.664;2022-12-07T13:41:24;6.80;81.30
2539;DHT22;1280;49.760;9.664;2022-12-07T13:43:59;6.70;81.30
2539;DHT22;1280;49.760;9.664;2022-12-07T13:46:36;6.80;81.30
2539;DHT22;1280;49.760;9.664;2022-12-07T13:49:17;6.80;81.30
2539;DHT22;1280;49.760;9.664;2022-12-07T13:51:46;6.70;81.30
2539;DHT22;1280;49.760;9.664;2022-12-07T13:54:15;6.70;81.10
2539;DHT22;1280;49.760;9.664;2022-12-07T13:56:44;6.70;81.00
2539;DHT22;1280;49.760;9.664;2022-12-07T13:59:17;6.70;81.00
2539;DHT22;1280;49.760;9.664;2022-12-07T14:01:48;6.60;81.10
2539;DHT22;1280;49.760;9.664;2022-12-07T14:07:01;6.60;81.30
2539;DHT22;1280;49.760;9.664;2022-12-07T14:09:56;6.60;81.30
2539;DHT22;1280;49.760;9.664;2022-12-07T14:12:24;6.70;81.30
2539;DHT22;1280;49.760;9.664;2022-12-07T14:14:53;6.70;81.30
2539;DHT22;1280;49.760;9.664;2022-12-07T14:17:24;6.70;81.10
2539;DHT22;1280;49.760;9.664;2022-12-07T14:19:53;6.60;81.10
2539;DHT22;1280;49.760;9.664;2022-12-07T14:22:25;6.70;81.10
2539;DHT22;1280;49.760;9.664;2022-12-07T14:25:15;6.60;81.10
2539;DHT22;1280;49.760;9.664;2022-12-07T14:27:55;6.60;81.00
2539;DHT22;1280;49.760;9.664;2022-12-07T14:30:26;6.60;81.10
2539;DHT22;1280;49.760;9.664;2022-12-07T14:32:57;6.60;81.10
2539;DHT22;1280;49.760;9.664;2022-12-07T14:35:27;6.60;81.00
2539;DHT22;1280;49.760;9.664;2022-12-07T14:37:56;6.60;81.20
2539;DHT22;1280;49.760;9.664;2022-12-07T14:40:27;6.60;81.10
2539;DHT22;1280;49.760;9.664;2022-12-07T14:42:58;6.60;81.10
2539;DHT22;1280;49.760;9.664;2022-12-07T14:45:28;6.60;81.00
2539;DHT22;1280;49.760;9.664;2022-12-07T14:47:56;6.60;81.00
2539;DHT22;1280;49.760;9.664;2022-12-07T14:50:48;6.60;81.00
2539;DHT22;1280;49.760;9.664;2022-12-07T14:53:40;6.60;81.10
2539;DHT22;1280;49.760;9.664;2022-12-07T14:56:10;6.50;81.10
2539;DHT22;1280;49.760;9.664;2022-12-07T14:58:38;6.60;81.20
2539;DHT22;1280;49.760;9.664;2022-12-07T15:01:07;6.60;81.30
2539;DHT22;1280;49.760;9.664;2022-12-07T15:03:35;6.60;81.30
2539;DHT22;1280;49.760;9.664;2022-12-07T15:06:05;6.70;81.10
2539;DHT22;1280;49.760;9.664;2022-12-07T15:08:34;6.70;81.10
2539;DHT22;1280;49.760;9.664;2022-12-07T15:11:02;6.70;81.00
2539;DHT22;1280;49.760;9.664;2022-12-07T15:13:31;6.70;81.00
2539;DHT22;1280;49.760;9.664;2022-12-07T15:16:20;6.70;80.90
2539;DHT22;1280;49.760;9.664;2022-12-07T15:18:48;6.70;80.90
2539;DHT22;1280;49.760;9.664;2022-12-07T15:21:36;6.60;80.90
2539;DHT22;1280;49.760;9.664;2022-12-07T15:24:05;6.60;80.90
2539;DHT22;1280;49.760;9.664;2022-12-07T15:26:33;6.60;80.90
2539;DHT22;1280;49.760;9.664;2022-12-07T15:29:02;6.60;80.90
2539;DHT22;1280;49.760;9.664;2022-12-07T15:31:31;6.60;80.90
2539;DHT22;1280;49.760;9.664;2022-12-07T15:34:19;6.60;80.70
2539;DHT22;1280;49.760;9.664;2022-12-07T15:36:47;6.60;80.80
2539;DHT22;1280;49.760;9.664;2022-12-07T15:39:15;6.60;80.80
2539;DHT22;1280;49.760;9.664;2022-12-07T15:41:43;6.50;80.70
2539;DHT22;1280;49.760;9.664;2022-12-07T15:44:13;6.50;80.70
2539;DHT22;1280;49.760;9.664;2022-12-07T15:46:59;6.50;80.80
2539;DHT22;1280;49.760;9.664;2022-12-07T15:49:28;6.50;80.80
2539;DHT22;1280;49.760;9.664;2022-12-07T15:51:56;6.40;80.70
2539;DHT22;1280;49.760;9.664;2022-12-07T15:54:26;6.40;80.80
2539;DHT22;1280;49.760;9.664;2022-12-07T15:56:55;6.40;80.90
2539;DHT22;1280;49.760;9.664;2022-12-07T15:59:26;6.40;81.00
2539;DHT22;1280;49.760;9.664;2022-12-07T16:01:54;6.40;80.90
2539;DHT22;1280;49.760;9.664;2022-12-07T16:04:23;6.40;81.00
2539;DHT22;1280;49.760;9.664;2022-12-07T16:06:51;6.40;81.00
2539;DHT22;1280;49.760;9.664;2022-12-07T16:09:19;6.40;81.10
2539;DHT22;1280;49.760;9.664;2022-12-07T16:11:47;6.40;81.00
2539;DHT22;1280;49.760;9.664;2022-12-07T16:14:16;6.40;81.00
2539;DHT22;1280;49.760;9.664;2022-12-07T16:16:46;6.40;81.00
2539;DHT22;1280;49.760;9.664;2022-12-07T16:19:14;6.40;81.10
2539;DHT22;1280;49.760;9.664;2022-12-07T16:21:42;6.40;81.10
2539;DHT22;1280;49.760;9.664;2022-12-07T16:24:10;6.40;80.90
2539;DHT22;1280;49.760;9.664;2022-12-07T16:26:39;6.40;80.90
2539;DHT22;1280;49.760;9.664;2022-12-07T16:29:16;6.40;81.00
2539;DHT22;1280;49.760;9.664;2022-12-07T16:31:45;6.40;81.10
2539;DHT22;1280;49.760;9.664;2022-12-07T16:34:14;6.50;81.10
2539;DHT22;1280;49.760;9.664;2022-12-07T16:36:42;6.50;81.00
2539;DHT22;1280;49.760;9.664;2022-12-07T16:39:30;6.50;81.00
2539;DHT22;1280;49.760;9.664;2022-12-07T16:41:58;6.50;81.00
2539;DHT22;1280;49.760;9.664;2022-12-07T16:44:26;6.50;81.00
2539;DHT22;1280;49.760;9.664;2022-12-07T16:46:56;6.50;81.00
2539;DHT22;1280;49.760;9.664;2022-12-07T16:49:24;6.50;81.00
2539;DHT22;1280;49.760;9.664;2022-12-07T16:51:52;6.50;81.00
2539;DHT22;1280;49.760;9.664;2022-12-07T16:54:40;6.50;81.00
2539;DHT22;1280;49.760;9.664;2022-12-07T16:57:08;6.50;81.00
2539;DHT22;1280;49.760;9.664;2022-12-07T16:59:42;6.50;81.00
2539;DHT22;1280;49.760;9.664;2022-12-07T17:02:12;6.60;81.00
2539;DHT22;1280;49.760;9.664;2022-12-07T17:04:40;6.50;81.00